Time;durP1;ratioP1;P1;durP2;ratioP2;P2;SDS_P1;SDS_P2;PMS_P1;PMS_P2;Temp;Humidity;BMP_temperature;BMP_pressure;BME280_temperature;BME280_humidity;BME280_pressure;Samples;Min_cycle;Max_cycle;Signal;HPM_P1;HPM_P2
2022/05/14 00:02:04;;;;;;;11.13;8.97;;;;;;;13.82;61.89;101164.53;5000738;28;20298;-87
2022/05/14 00:04:31;;;;;;;9.03;8.13;;;;;;;13.79;62.27;101162.94;5009633;28;20223;-87
2022/05/14 00:06:58;;;;;;;10.97;9.07;;;;;;;13.76;62.24;101160.50;4999682;28;20204;-87
2022/05/14 00:09:25;;;;;;;9.40;7.83;;;;;;;13.73;62.33;101155.34;5005433;28;20223;-88
2022/05/14 00:14:35;;;;;;;9.00;8.10;;;;;;;13.71;62.84;101159.06;5006134;28;22293;-88
2022/05/14 00:17:04;;;;;;;8.57;7.77;;;;;;;13.68;62.56;101162.81;5007322;28;20211;-87
2022/05/14 00:19:31;;;;;;;10.00;7.77;;;;;;;13.69;63.08;101159.19;4999742;28;20223;-87
2022/05/14 00:21:58;;;;;;;7.63;6.93;;;;;;;13.68;62.88;101154.78;5001285;28;20203;-87
2022/05/14 00:24:24;;;;;;;8.53;6.70;;;;;;;13.66;62.81;101154.03;5005843;28;20254;-87
2022/05/14 00:26:51;;;;;;;9.20;5.90;;;;;;;13.66;63.15;101151.34;5002877;28;20257;-86
2022/05/14 00:29:17;;;;;;;7.77;5.37;;;;;;;13.65;63.18;101148.78;5000535;28;20311;-87
2022/05/14 00:31:44;;;;;;;6.70;5.40;;;;;;;13.65;63.13;101155.00;5004516;28;20285;-87
2022/05/14 00:34:12;;;;;;;7.80;5.97;;;;;;;13.65;62.82;101149.63;5000233;28;20198;-88
2022/05/14 00:36:38;;;;;;;10.43;5.43;;;;;;;13.65;62.77;101149.63;5012336;28;20213;-88
2022/05/14 00:39:05;;;;;;;7.80;4.87;;;;;;;13.67;63.20;101149.53;5012158;28;20237;-87
2022/05/14 00:41:32;;;;;;;8.70;4.87;;;;;;;13.65;62.67;101152.31;5004113;28;20242;-88
2022/05/14 00:44:01;;;;;;;5.03;4.47;;;;;;;13.69;62.81;101150.28;4997678;28;20594;-87
2022/05/14 00:46:33;;;;;;;5.17;4.37;;;;;;;13.67;63.20;101147.72;4998890;28;20204;-87
2022/05/14 00:49:00;;;;;;;5.57;4.57;;;;;;;13.67;63.00;101152.22;5000072;28;20231;-87
2022/05/14 00:51:30;;;;;;;10.00;5.20;;;;;;;13.69;63.23;101159.19;5002267;28;20207;-87
2022/05/14 00:54:00;;;;;;;7.23;5.33;;;;;;;13.70;63.43;101160.03;5000221;28;20219;-87
2022/05/14 00:56:31;;;;;;;7.90;6.33;;;;;;;13.69;63.26;101159.19;4998213;28;20200;-87
2022/05/14 00:59:06;;;;;;;10.33;6.47;;;;;;;13.70;62.82;101165.38;4999863;28;20223;-87
2022/05/14 01:01:34;;;;;;;9.33;6.83;;;;;;;13.70;63.41;101160.03;5005114;28;20214;-87
2022/05/14 01:04:00;;;;;;;8.57;7.17;;;;;;;13.71;63.19;101156.41;5005192;28;20233;-87
2022/05/14 01:06:30;;;;;;;9.57;7.67;;;;;;;13.71;62.85;101162.63;5006225;28;20203;-85
2022/05/14 01:08:57;;;;;;;9.83;7.17;;;;;;;13.71;63.14;101156.41;5005532;28;20301;-87
2022/05/14 01:11:24;;;;;;;8.37;6.60;;;;;;;13.71;63.25;101153.72;4995859;28;20219;-87
2022/05/14 01:13:51;;;;;;;7.27;6.23;;;;;;;13.70;62.83;101150.19;5005846;28;20217;-88
2022/05/14 01:16:17;;;;;;;7.23;6.53;;;;;;;13.71;63.08;101159.94;4999824;28;20574;-86
2022/05/14 01:18:44;;;;;;;13.20;6.40;;;;;;;13.71;62.93;101157.25;5009643;28;20235;-87
2022/05/14 01:21:19;;;;;;;9.87;6.80;;;;;;;13.72;63.32;101158.13;4999669;28;20202;-87
2022/05/14 01:26:45;;;;;;;8.67;6.70;;;;;;;13.73;63.30;101151.81;5001057;28;20215;-87
2022/05/14 01:29:15;;;;;;;8.63;6.27;;;;;;;13.73;63.09;101149.97;4997138;28;20222;-88
2022/05/14 01:31:42;;;;;;;8.13;5.87;;;;;;;13.74;63.48;101151.69;5005297;28;20207;-87
2022/05/14 01:34:11;;;;;;;10.87;5.53;;;;;;;13.74;63.29;101143.66;5000482;28;20207;-88
2022/05/14 01:36:40;;;;;;;8.67;5.30;;;;;;;13.73;63.13;101139.28;5002591;28;20195;-88
2022/05/14 01:39:08;;;;;;;8.50;4.93;;;;;;;13.74;63.18;101145.50;4996935;28;20243;-87
2022/05/14 01:41:35;;;;;;;5.57;4.93;;;;;;;13.74;63.26;101149.03;4997102;28;20211;-87
2022/05/14 01:44:03;;;;;;;7.57;5.30;;;;;;;13.74;63.52;101141.00;5001628;28;20231;-88
2022/05/14 01:46:30;;;;;;;6.73;5.23;;;;;;;13.74;63.45;101141.00;4995045;28;20210;-88
2022/05/14 01:48:56;;;;;;;8.53;5.20;;;;;;;13.74;63.53;101145.50;5000910;28;20234;-88
2022/05/14 01:51:24;;;;;;;9.87;5.73;;;;;;;13.73;63.62;101141.94;5005246;28;20215;-87
2022/05/14 01:53:52;;;;;;;7.97;5.57;;;;;;;13.74;63.32;101137.47;4999169;28;20208;-87
2022/05/14 01:56:19;;;;;;;8.47;5.63;;;;;;;13.73;63.29;101139.28;4999904;28;20218;-86
2022/05/14 01:58:45;;;;;;;6.30;5.67;;;;;;;13.74;63.61;101140.13;5001641;28;20223;-87
2022/05/14 02:01:16;;;;;;;8.40;5.90;;;;;;;13.72;63.55;101134.88;4999105;28;20290;-87
2022/05/14 02:03:45;;;;;;;8.70;6.03;;;;;;;13.72;63.96;101136.69;4996810;28;20638;-87
2022/05/14 02:06:12;;;;;;;12.17;6.67;;;;;;;13.70;63.75;101133.28;4997991;28;20564;-87
2022/05/14 02:08:39;;;;;;;11.47;7.27;;;;;;;13.68;63.99;101136.06;4996108;28;20227;-89
2022/05/14 02:11:07;;;;;;;10.13;7.47;;;;;;;13.65;64.10;101135.41;5001072;28;20214;-87
2022/05/14 02:13:34;;;;;;;9.33;8.27;;;;;;;13.62;64.24;101135.59;5001039;28;20211;-87
2022/05/14 02:16:00;;;;;;;8.70;7.80;;;;;;;13.59;64.15;101128.66;4997369;28;20223;-88
2022/05/14 02:18:28;;;;;;;9.17;7.43;;;;;;;13.58;64.26;101134.13;5001158;28;20325;-87
2022/05/14 02:20:55;;;;;;;11.60;8.07;;;;;;;13.55;63.95;101135.19;4996394;28;20211;-86
2022/05/14 02:23:21;;;;;;;9.90;7.97;;;;;;;13.56;63.96;101126.19;4995823;28;20621;-87
2022/05/14 02:25:48;;;;;;;8.30;7.07;;;;;;;13.55;64.08;101128.00;4995275;28;20205;-86
2022/05/14 02:28:16;;;;;;;9.30;7.10;;;;;;;13.54;64.04;101131.66;5003445;28;20231;-86
2022/05/14 02:30:42;;;;;;;8.40;6.70;;;;;;;13.55;64.20;101140.53;5008237;23;20211;-74
2022/05/14 02:33:09;;;;;;;7.97;6.33;;;;;;;13.54;64.11;101139.69;5023106;28;20229;-74
2022/05/14 02:35:37;;;;;;;9.13;6.23;;;;;;;13.54;64.21;101126.28;5022368;28;20208;-73
2022/05/14 02:38:04;;;;;;;10.33;6.27;;;;;;;13.55;64.28;101127.16;5021237;28;20380;-74
2022/05/14 02:40:31;;;;;;;11.13;6.30;;;;;;;13.55;63.76;101127.16;5001653;28;20210;-74
2022/05/14 02:42:57;;;;;;;8.03;5.53;;;;;;;13.55;64.15;101132.50;4997001;28;20204;-75
2022/05/14 02:45:24;;;;;;;7.67;5.27;;;;;;;13.55;63.96;101135.19;5038336;23;20236;-82
2022/05/14 02:47:51;;;;;;;7.63;5.93;;;;;;;13.54;63.72;101139.69;5048055;28;20209;-82
2022/05/14 02:50:18;;;;;;;7.03;5.87;;;;;;;13.55;63.83;101140.53;5044401;28;20197;-82
2022/05/14 02:52:46;;;;;;;8.93;6.23;;;;;;;13.54;63.66;101133.47;5029370;28;20222;-82
2022/05/14 02:55:13;;;;;;;8.33;6.13;;;;;;;13.54;63.98;101141.50;5022657;28;20584;-82
2022/05/14 02:57:40;;;;;;;11.77;6.93;;;;;;;13.53;63.89;101147.81;5024405;28;20194;-82
2022/05/14 03:00:11;;;;;;;7.40;6.50;;;;;;;13.52;64.11;101138.06;5028025;28;20660;-82
2022/05/14 03:02:38;;;;;;;11.17;6.97;;;;;;;13.50;63.92;101140.84;5023786;28;20221;-82
2022/05/14 03:05:07;;;;;;;7.97;6.40;;;;;;;13.49;63.86;101146.28;5024120;28;20325;-82
2022/05/14 03:07:33;;;;;;;8.53;6.73;;;;;;;13.47;64.11;101142.84;5028467;28;20206;-82
2022/05/14 03:10:02;;;;;;;7.70;6.93;;;;;;;13.44;64.30;101138.56;5024916;28;20207;-82
2022/05/14 03:12:28;;;;;;;8.03;7.20;;;;;;;13.43;64.26;101144.03;5026842;28;20219;-82
2022/05/14 03:14:55;;;;;;;9.33;7.30;;;;;;;13.42;64.53;101140.50;5026645;28;20210;-83
2022/05/14 03:17:22;;;;;;;8.83;7.50;;;;;;;13.40;64.50;101141.56;5033555;28;20840;-82
2022/05/14 03:19:49;;;;;;;11.97;7.90;;;;;;;13.37;64.18;101139.97;5026814;28;20850;-82
2022/05/14 03:22:16;;;;;;;7.63;6.47;;;;;;;13.34;64.53;101137.47;5029551;28;20225;-81
2022/05/14 03:24:43;;;;;;;8.93;6.63;;;;;;;13.35;64.26;101149.03;5027089;28;20237;-82
2022/05/14 03:27:13;;;;;;;9.60;6.77;;;;;;;13.33;64.37;101150.97;5026460;28;20213;-82
2022/05/14 03:29:40;;;;;;;7.87;6.90;;;;;;;13.30;64.14;101146.66;5036017;28;20209;-82
2022/05/14 03:32:08;;;;;;;7.00;6.23;;;;;;;13.29;64.16;101144.09;5025465;28;20226;-82
2022/05/14 03:34:36;;;;;;;10.33;6.50;;;;;;;13.26;64.49;101138.94;5029859;28;20707;-82
2022/05/14 03:37:02;;;;;;;7.47;5.87;;;;;;;13.24;64.59;101132.88;5022864;28;20752;-82
2022/05/14 03:39:29;;;;;;;8.40;5.87;;;;;;;13.22;64.31;101145.47;5029741;28;20626;-82
2022/05/14 03:41:56;;;;;;;7.60;5.27;;;;;;;13.20;64.03;101129.53;5031119;28;20238;-82
2022/05/14 03:44:24;;;;;;;5.77;5.07;;;;;;;13.17;63.95;101135.06;5026179;28;20227;-82
2022/05/14 03:46:51;;;;;;;7.17;4.90;;;;;;;13.14;63.91;101136.09;5022867;28;20209;-82
2022/05/14 03:49:18;;;;;;;8.70;4.63;;;;;;;13.11;63.93;101147.00;5027509;28;20687;-82
2022/05/14 03:51:45;;;;;;;8.63;5.13;;;;;;;13.09;64.20;101140.03;5022952;28;20237;-82
2022/05/14 03:54:12;;;;;;;8.83;5.17;;;;;;;13.06;63.91;101146.47;5033904;28;20202;-82
2022/05/14 03:56:39;;;;;;;8.97;5.03;;;;;;;13.04;63.91;101150.19;5022925;28;20231;-82
2022/05/14 03:59:06;;;;;;;6.73;4.90;;;;;;;13.05;64.08;101157.25;5026257;28;20217;-82
2022/05/14 04:01:35;;;;;;;7.37;4.90;;;;;;;13.03;64.14;101160.03;5025988;28;20314;-82
2022/05/14 04:04:01;;;;;;;10.53;5.63;;;;;;;13.02;64.39;101157.44;5023438;28;20245;-82
2022/05/14 04:06:28;;;;;;;7.30;5.50;;;;;;;12.99;64.22;101158.50;5024407;28;20566;-82
2022/05/14 04:08:55;;;;;;;7.50;5.40;;;;;;;12.98;64.53;101161.28;5030788;28;20326;-82
2022/05/14 04:11:22;;;;;;;11.10;6.30;;;;;;;12.95;64.61;101158.78;5027580;28;20226;-82
2022/05/14 04:13:48;;;;;;;6.43;5.80;;;;;;;12.92;64.63;101153.66;5028238;28;20337;-82
2022/05/14 04:16:15;;;;;;;9.80;6.23;;;;;;;12.90;65.13;101156.41;5032931;28;20211;-81
2022/05/14 04:18:43;;;;;;;10.93;6.57;;;;;;;12.88;65.36;101154.81;5035266;28;20248;-81
2022/05/14 04:21:10;;;;;;;8.47;6.53;;;;;;;12.87;65.23;101151.28;5026047;28;20229;-81
2022/05/14 04:23:37;;;;;;;9.77;6.83;;;;;;;12.87;65.49;101148.63;5027283;28;20221;-81
2022/05/14 04:26:04;;;;;;;7.17;6.47;;;;;;;12.88;65.74;101163.72;5030772;28;20233;-82
2022/05/14 04:28:30;;;;;;;11.73;6.60;;;;;;;12.89;65.66;101167.25;5029591;28;20206;-82
2022/05/14 04:30:58;;;;;;;10.80;6.37;;;;;;;12.91;66.04;101160.81;5025062;28;20225;-81
2022/05/14 04:33:26;;;;;;;8.77;6.40;;;;;;;12.93;65.99;101166.06;5033463;28;20219;-82
2022/05/14 04:35:54;;;;;;;14.30;7.43;;;;;;;12.94;66.40;101165.09;5038097;28;20861;-81
2022/05/14 04:38:21;;;;;;;10.23;6.40;;;;;;;12.96;66.36;101169.41;5033158;28;20561;-81
2022/05/14 04:40:48;;;;;;;8.80;6.03;;;;;;;12.98;66.45;101174.66;5033759;28;20674;-81
2022/05/14 04:43:15;;;;;;;9.90;6.57;;;;;;;13.00;66.39;101178.94;5033169;28;20210;-82
2022/05/14 04:45:43;;;;;;;8.73;6.57;;;;;;;13.02;66.48;101178.84;5030351;28;20226;-81
2022/05/14 04:48:11;;;;;;;9.57;6.17;;;;;;;13.04;66.42;101188.47;5031038;28;20201;-82
2022/05/14 04:50:38;;;;;;;8.27;6.67;;;;;;;13.04;66.06;101183.13;5027030;28;20619;-82
2022/05/14 04:53:06;;;;;;;10.57;6.50;;;;;;;13.06;65.93;101194.59;5029655;28;20199;-82
2022/05/14 04:55:33;;;;;;;8.03;6.07;;;;;;;13.08;66.40;101187.31;5027388;28;20287;-82
2022/05/14 04:58:00;;;;;;;10.27;6.90;;;;;;;13.11;66.39;101186.25;5027557;28;20212;-81
2022/05/14 05:00:27;;;;;;;7.47;6.47;;;;;;;13.10;66.20;101198.75;5027230;28;20209;-82
2022/05/14 05:05:38;;;;;;;8.27;6.73;;;;;;;13.14;66.03;101202.97;5035727;28;20701;-82
2022/05/14 05:08:06;;;;;;;9.63;6.93;;;;;;;13.17;65.86;101212.63;5031933;28;20202;-82
2022/05/14 05:10:33;;;;;;;7.90;6.17;;;;;;;13.17;66.12;101199.25;5026392;28;20208;-82
2022/05/14 05:13:00;;;;;;;8.73;6.77;;;;;;;13.18;66.13;101198.31;5033401;28;20706;-82
2022/05/14 05:15:26;;;;;;;9.37;6.37;;;;;;;13.20;66.52;101199.06;5019072;28;20206;-81
2022/05/14 05:17:53;;;;;;;9.33;7.07;;;;;;;13.23;66.02;101204.22;5024259;28;20290;-82
2022/05/14 05:20:20;;;;;;;10.33;7.27;;;;;;;13.25;66.37;101210.34;5026695;28;20194;-81
2022/05/14 05:22:48;;;;;;;9.83;6.57;;;;;;;13.28;66.60;101215.44;5031632;28;20222;-81
2022/05/14 05:25:16;;;;;;;9.20;6.40;;;;;;;13.33;66.32;101223.19;5033143;28;20317;-81
2022/05/14 05:27:42;;;;;;;8.60;6.30;;;;;;;13.38;66.27;101221.94;5034191;28;20206;-82
2022/05/14 05:30:09;;;;;;;8.77;6.83;;;;;;;13.42;66.44;101218.09;5033071;28;20285;-81
2022/05/14 05:32:36;;;;;;;10.60;7.70;;;;;;;13.46;66.49;101222.28;5024529;28;20230;-82
2022/05/14 05:35:04;;;;;;;8.00;6.83;;;;;;;13.53;66.12;101217.38;5013715;28;20207;-81
2022/05/14 05:37:30;;;;;;;8.93;6.77;;;;;;;13.58;66.37;101219.75;5039012;28;20202;-82
2022/05/14 05:39:57;;;;;;;8.60;6.30;;;;;;;13.65;66.47;101215.69;5031968;28;20206;-82
2022/05/14 05:42:25;;;;;;;13.03;6.70;;;;;;;13.73;66.67;101224.94;5035695;28;20233;-82
2022/05/14 05:44:52;;;;;;;8.13;6.40;;;;;;;13.80;66.02;101226.22;5028890;28;20232;-82
2022/05/14 05:47:18;;;;;;;12.47;6.80;;;;;;;13.88;66.01;101223.91;5031701;28;20217;-82
2022/05/14 05:49:45;;;;;;;8.67;6.70;;;;;;;13.97;66.21;101219.75;5018196;28;20285;-82
2022/05/14 05:52:12;;;;;;;10.47;6.13;;;;;;;14.09;65.80;101220.72;5026945;28;21088;-82
2022/05/14 05:57:32;;;;;;;10.33;6.10;;;;;;;14.37;65.43;101231.22;5027782;28;20221;-82
2022/05/14 05:59:58;;;;;;;8.53;6.27;;;;;;;14.52;65.72;101232.84;5029162;28;20202;-81
2022/05/14 06:02:25;;;;;;;8.17;5.80;;;;;;;14.67;65.15;101232.75;5026940;28;20226;-81
2022/05/14 06:04:52;;;;;;;8.67;5.43;;;;;;;14.81;64.07;101232.63;5014998;28;20354;-82
2022/05/14 06:07:19;;;;;;;9.57;5.83;;;;;;;14.92;63.63;101230.00;5029574;28;20328;-83
2022/05/14 06:09:47;;;;;;;10.00;5.83;;;;;;;15.04;63.43;101226.47;5032032;28;20197;-83
2022/05/14 06:12:15;;;;;;;7.90;5.07;;;;;;;15.18;63.05;101234.34;5029788;28;20551;-84
2022/05/14 06:14:43;;;;;;;8.90;4.53;;;;;;;15.34;62.80;101238.59;5031219;28;20215;-83
2022/05/14 06:17:09;;;;;;;7.30;4.13;;;;;;;15.48;62.21;101233.91;5027220;28;20289;-83
2022/05/14 06:19:36;;;;;;;9.67;4.67;;;;;;;15.60;61.13;101233.00;5030698;28;20306;-83
2022/05/14 06:22:04;;;;;;;6.83;4.10;;;;;;;15.72;60.85;101244.69;5026917;28;20230;-83
2022/05/14 06:24:30;;;;;;;9.50;4.53;;;;;;;15.82;60.52;101237.63;5032899;28;20210;-83
2022/05/14 06:26:57;;;;;;;7.97;4.50;;;;;;;15.90;60.14;101237.91;5029562;28;20214;-83
2022/05/14 06:29:24;;;;;;;12.87;4.77;;;;;;;16.00;59.52;101243.41;5026627;28;20214;-83
2022/05/14 06:31:52;;;;;;;8.37;4.80;;;;;;;16.11;59.45;101242.63;5030032;28;20223;-84
2022/05/14 06:34:18;;;;;;;9.20;5.23;;;;;;;16.21;59.35;101251.66;5029803;28;20213;-83
2022/05/14 06:36:45;;;;;;;7.90;4.70;;;;;;;16.29;58.47;101250.09;5036053;28;20224;-80
2022/05/14 06:39:11;;;;;;;8.73;4.90;;;;;;;16.39;58.59;101236.78;5026257;28;20550;-81
2022/05/14 06:41:38;;;;;;;9.47;4.80;;;;;;;16.50;58.39;101244.84;5018582;28;20806;-80
2022/05/14 06:44:05;;;;;;;10.07;5.10;;;;;;;16.59;57.64;101241.47;5022537;28;20670;-81
2022/05/14 06:46:32;;;;;;;9.17;4.67;;;;;;;16.68;57.47;101245.28;5028444;28;20217;-81
2022/05/14 06:49:00;;;;;;;9.73;5.10;;;;;;;16.75;56.97;101245.66;5027631;28;20217;-81
2022/05/14 06:51:29;;;;;;;10.83;5.00;;;;;;;16.82;56.93;101249.56;5029568;28;20601;-80
2022/05/14 06:54:00;;;;;;;10.37;5.20;;;;;;;16.90;56.83;101247.97;5027140;28;20216;-81
2022/05/14 06:56:28;;;;;;;8.17;5.27;;;;;;;16.98;57.00;101253.59;5021385;28;20301;-80
2022/05/14 06:58:56;;;;;;;11.63;5.07;;;;;;;17.11;56.78;101258.84;5032799;28;20219;-81
2022/05/14 07:01:23;;;;;;;8.60;4.90;;;;;;;17.21;56.47;101245.47;5037584;28;20236;-81
2022/05/14 07:06:38;;;;;;;8.67;4.70;;;;;;;17.44;55.67;101254.38;5035376;28;20699;-81
2022/05/14 07:09:06;;;;;;;8.97;4.80;;;;;;;17.50;55.58;101248.47;5024832;28;20221;-81
2022/05/14 07:11:35;;;;;;;10.90;4.40;;;;;;;17.56;55.26;101250.66;5026032;28;20244;-82
2022/05/14 07:14:01;;;;;;;9.50;5.23;;;;;;;17.60;55.20;101249.41;5030067;28;20227;-82
2022/05/14 07:16:28;;;;;;;10.60;5.20;;;;;;;17.70;55.69;101261.19;5031906;28;20855;-80
2022/05/14 07:18:55;;;;;;;11.53;4.97;;;;;;;17.80;55.43;101258.56;5030710;28;20243;-82
2022/05/14 07:21:21;;;;;;;8.10;4.50;;;;;;;17.90;54.94;101263.06;5033927;28;20226;-81
2022/05/14 07:23:50;;;;;;;10.23;5.07;;;;;;;17.98;54.87;101262.41;5036159;28;20194;-82
2022/05/14 07:26:16;;;;;;;7.87;4.80;;;;;;;18.07;54.38;101260.78;5030091;28;20294;-82
2022/05/14 07:28:43;;;;;;;9.00;4.53;;;;;;;18.16;54.52;101262.66;5012222;28;20230;-81
2022/05/14 07:31:10;;;;;;;7.17;4.77;;;;;;;18.21;54.07;101260.44;5033909;28;20609;-81
2022/05/14 07:33:37;;;;;;;9.97;4.57;;;;;;;18.22;53.91;101260.31;5034436;28;20210;-81
2022/05/14 07:36:11;;;;;;;9.10;4.53;;;;;;;18.30;54.21;101265.03;5031321;28;20210;-81
2022/05/14 07:38:39;;;;;;;9.17;5.13;;;;;;;18.34;53.79;101271.88;5027864;28;20208;-82
2022/05/14 07:41:08;;;;;;;13.70;5.10;;;;;;;18.38;54.24;101265.25;5032254;28;20232;-80
2022/05/14 07:43:38;;;;;;;6.83;4.40;;;;;;;18.45;54.00;101269.09;5029497;28;20204;-81
2022/05/14 07:46:08;;;;;;;8.83;5.03;;;;;;;18.51;53.99;101268.59;5029479;28;21480;-82
2022/05/14 07:48:38;;;;;;;9.67;5.13;;;;;;;18.56;53.65;101270.88;5031449;28;20755;-81
2022/05/14 07:51:07;;;;;;;10.07;5.07;;;;;;;18.63;53.62;101272.09;5030517;28;20235;-81
2022/05/14 07:53:34;;;;;;;8.03;5.13;;;;;;;18.68;53.59;101268.00;5031409;28;20221;-81
2022/05/14 07:56:04;;;;;;;12.00;5.23;;;;;;;18.75;53.38;101262.06;5032312;28;20332;-81
2022/05/14 07:58:32;;;;;;;9.27;5.13;;;;;;;18.78;53.18;101254.56;5027480;28;20244;-83
2022/05/14 08:00:59;;;;;;;7.70;5.20;;;;;;;18.83;53.38;101255.00;5034309;28;20229;-81
2022/05/14 08:03:27;;;;;;;8.10;5.20;;;;;;;18.87;53.12;101269.94;5035245;28;20606;-81
2022/05/14 08:05:53;;;;;;;10.90;5.33;;;;;;;18.91;53.21;101270.53;5034865;28;20320;-81
2022/05/14 08:08:20;;;;;;;9.40;5.10;;;;;;;18.97;53.03;101273.53;5033190;28;20547;-80
2022/05/14 08:10:48;;;;;;;9.33;5.30;;;;;;;19.04;52.84;101263.03;5034072;28;20216;-81
2022/05/14 08:13:17;;;;;;;13.97;5.80;;;;;;;19.11;53.12;101272.31;5032653;28;20644;-80
2022/05/14 08:15:46;;;;;;;8.30;5.23;;;;;;;19.18;52.55;101264.50;5037920;28;20196;-80
2022/05/14 08:18:13;;;;;;;12.27;5.40;;;;;;;19.20;52.73;101260.66;5036025;28;20663;-81
2022/05/14 08:20:40;;;;;;;9.60;5.07;;;;;;;19.23;52.39;101260.41;5036875;28;20720;-82
2022/05/14 08:25:52;;;;;;;7.27;4.57;;;;;;;19.39;52.54;101260.72;5037606;28;20313;-81
2022/05/14 08:28:20;;;;;;;10.23;5.37;;;;;;;19.49;52.42;101265.28;5037938;28;20205;-82
2022/05/14 08:30:48;;;;;;;15.23;5.57;;;;;;;19.58;52.06;101261.78;5033875;28;20687;-82
2022/05/14 08:33:14;;;;;;;9.30;4.60;;;;;;;19.68;51.75;101259.94;5024901;28;20209;-81
2022/05/14 08:35:42;;;;;;;8.20;4.53;;;;;;;19.77;51.76;101250.97;5034793;28;20210;-82
2022/05/14 08:38:11;;;;;;;9.43;4.70;;;;;;;19.84;51.60;101264.78;5036226;28;20818;-82
2022/05/14 08:40:40;;;;;;;10.93;4.70;;;;;;;19.90;51.24;101265.06;5028338;28;20222;-81
2022/05/14 08:43:14;;;;;;;8.73;4.30;;;;;;;19.95;50.71;101261.94;5027032;28;20325;-81
2022/05/14 08:45:40;;;;;;;12.13;4.60;;;;;;;20.00;50.91;101267.78;5035255;28;20656;-81
2022/05/14 08:48:28;;;;;;;11.17;5.23;;;;;;;20.05;50.77;101262.81;5032678;28;21833;-81
2022/05/14 08:51:01;;;;;;;7.93;4.70;;;;;;;20.10;50.65;101274.88;5023587;28;20238;-81
2022/05/14 08:53:29;;;;;;;9.67;4.70;;;;;;;20.13;50.60;101267.47;5029001;28;20212;-81
2022/05/14 08:56:20;;;;;;;9.17;4.40;;;;;;;20.17;50.97;101277.88;5023071;28;20203;-82
2022/05/14 08:59:01;;;;;;;11.03;4.67;;;;;;;20.21;50.43;101279.28;5034424;28;20193;-83
2022/05/14 09:01:31;;;;;;;12.10;5.07;;;;;;;20.19;50.07;101273.16;5029116;28;20264;-84
2022/05/14 09:03:59;;;;;;;9.43;4.57;;;;;;;20.12;50.28;101274.72;5037298;28;20236;-83
2022/05/14 09:06:26;;;;;;;9.47;4.20;;;;;;;20.09;50.58;101277.72;5026329;28;20223;-83
2022/05/14 09:08:53;;;;;;;11.57;5.13;;;;;;;20.13;50.94;101270.19;5028558;28;20236;-84
2022/05/14 09:11:23;;;;;;;10.43;4.80;;;;;;;20.19;50.73;101272.31;5041459;28;20259;-83
2022/05/14 09:13:53;;;;;;;10.50;4.63;;;;;;;20.23;50.69;101265.63;5034329;28;20208;-83
2022/05/14 09:16:23;;;;;;;10.63;4.10;;;;;;;20.30;50.69;101277.56;5034279;28;20202;-83
2022/05/14 09:18:53;;;;;;;15.57;4.97;;;;;;;20.41;50.45;101274.75;5036051;28;20205;-84
2022/05/14 09:21:24;;;;;;;9.17;4.27;;;;;;;20.52;50.22;101279.13;5037683;28;20235;-83
2022/05/14 09:23:55;;;;;;;16.03;5.10;;;;;;;20.55;49.52;101271.56;5032182;28;20200;-83
2022/05/14 09:26:26;;;;;;;12.03;4.63;;;;;;;20.56;49.70;101265.16;5032275;28;20224;-84
2022/05/14 09:28:55;;;;;;;12.33;4.23;;;;;;;20.55;49.35;101277.00;5036162;28;20574;-84
2022/05/14 09:31:28;;;;;;;12.57;3.97;;;;;;;20.55;49.29;101277.00;5027233;28;20225;-83
2022/05/14 09:34:05;;;;;;;8.90;5.00;;;;;;;20.60;49.30;101273.84;5039376;28;20300;-83
2022/05/14 09:36:36;;;;;;;10.60;4.13;;;;;;;20.64;49.07;101273.38;5038419;28;20201;-84
2022/05/14 09:39:07;;;;;;;11.70;4.50;;;;;;;20.66;49.09;101279.50;5026645;28;20710;-84
2022/05/14 09:41:41;;;;;;;14.80;4.73;;;;;;;20.66;49.08;101276.81;5028231;28;20225;-83
2022/05/14 09:44:13;;;;;;;11.25;4.20;;;;;;;20.68;48.88;101277.50;5027280;28;20227;-83
2022/05/14 09:46:40;;;;;;;8.30;4.33;;;;;;;20.64;48.67;101284.22;5030877;28;20691;-84
2022/05/14 09:49:09;;;;;;;15.47;5.13;;;;;;;20.61;48.26;101273.66;5030921;28;20214;-82
2022/05/14 09:51:48;;;;;;;10.03;3.93;;;;;;;20.56;48.94;101267.00;5030821;28;20233;-83
2022/05/14 09:54:23;;;;;;;8.85;3.65;;;;;;;20.58;49.02;101278.56;5019621;28;20201;-82
2022/05/14 09:57:20;;;;;;;7.77;4.27;;;;;;;20.61;48.85;101268.25;5027981;28;20211;-82
2022/05/14 10:00:03;;;;;;;8.33;4.07;;;;;;;20.61;48.55;101279.09;5032702;28;20230;-83
2022/05/14 10:02:45;;;;;;;8.93;4.07;;;;;;;20.61;48.50;101281.78;5030039;28;20224;-82
2022/05/14 10:05:17;;;;;;;12.27;4.10;;;;;;;20.69;48.99;101270.25;5033842;28;20198;-82
2022/05/14 10:07:51;;;;;;;14.30;4.27;;;;;;;20.75;48.35;101269.66;5030200;28;20196;-82
2022/05/14 10:10:33;;;;;;;12.60;4.07;;;;;;;20.79;48.39;101273.75;5021923;28;20194;-82
2022/05/14 10:13:05;;;;;;;10.90;4.40;;;;;;;20.79;47.58;101274.63;5031649;28;20208;-82
2022/05/14 10:15:41;;;;;;;13.90;4.00;;;;;;;20.78;47.64;101272.91;5028205;28;20296;-82
2022/05/14 10:18:34;;;;;;;7.93;3.63;;;;;;;20.82;47.90;101272.63;5023404;28;20212;-82
2022/05/14 10:21:08;;;;;;;10.23;3.95;;;;;;;20.85;48.22;101286.72;5030097;28;20233;-82
2022/05/14 10:26:59;;;;;;;12.50;4.15;;;;;;;20.92;48.13;101282.41;5031050;28;20232;-83
2022/05/14 10:29:40;;;;;;;11.23;3.83;;;;;;;20.93;48.44;101277.88;5035439;28;20211;-83
2022/05/14 10:32:09;;;;;;;10.15;4.55;;;;;;;20.93;48.67;101281.41;5032457;28;20233;-82
2022/05/14 10:34:43;;;;;;;10.10;4.72;;;;;;;20.95;48.85;101278.56;5033232;28;20212;-82
2022/05/14 10:37:21;;;;;;;9.60;3.97;;;;;;;21.00;48.61;101277.09;5035964;28;20280;-82
2022/05/14 10:39:58;;;;;;;10.95;4.13;;;;;;;21.00;48.49;101274.38;5026115;28;20214;-84
2022/05/14 10:42:34;;;;;;;9.48;3.92;;;;;;;20.95;47.84;101279.41;5026804;28;20559;-84
2022/05/14 10:45:08;;;;;;;10.52;4.22;;;;;;;20.91;47.47;101274.44;5037815;28;20226;-84
2022/05/14 10:47:34;;;;;;;10.10;4.07;;;;;;;20.89;47.71;101287.28;5029873;28;20222;-84
2022/05/14 10:50:07;;;;;;;8.43;4.05;;;;;;;20.90;47.51;101280.88;5035484;28;20217;-85
2022/05/14 10:52:34;;;;;;;15.03;4.23;;;;;;;20.94;47.71;101277.72;5028697;28;20275;-84
2022/05/14 10:55:03;;;;;;;10.73;4.18;;;;;;;20.99;47.49;101280.81;5032352;28;20209;-84
2022/05/14 10:57:42;;;;;;;9.45;4.15;;;;;;;20.98;47.40;101276.38;5030381;28;20208;-84
2022/05/14 11:00:32;;;;;;;13.55;3.72;;;;;;;21.00;47.28;101281.66;5032155;28;20202;-84
2022/05/14 11:03:08;;;;;;;12.05;3.92;;;;;;;20.99;46.04;101279.94;5026742;28;20205;-84
2022/05/14 11:05:37;;;;;;;10.55;3.63;;;;;;;20.98;45.89;101279.09;5024314;28;20843;-84
2022/05/14 11:08:09;;;;;;;13.40;4.15;;;;;;;20.97;45.55;101281.94;5025522;28;20239;-83
2022/05/14 11:10:39;;;;;;;8.80;3.90;;;;;;;21.00;45.63;101271.69;5026124;28;20867;-84
2022/05/14 11:13:12;;;;;;;7.78;3.45;;;;;;;21.04;45.37;101283.06;5033810;28;20209;-83
2022/05/14 11:15:39;;;;;;;11.37;4.17;;;;;;;21.11;45.58;101282.34;5022582;28;20660;-83
2022/05/14 11:18:08;;;;;;;11.03;3.90;;;;;;;21.27;45.58;101286.28;5034914;28;20206;-83
2022/05/14 11:20:35;;;;;;;9.40;3.40;;;;;;;21.40;44.76;101274.06;5033738;28;20221;-83
2022/05/14 11:23:08;;;;;;;8.35;2.90;;;;;;;21.54;44.28;101282.69;5027770;28;20210;-83
2022/05/14 11:25:37;;;;;;;12.52;3.25;;;;;;;21.62;43.07;101272.78;5017971;28;20589;-83
2022/05/14 11:28:08;;;;;;;7.47;3.20;;;;;;;21.69;42.55;101270.31;5026734;28;20344;-83
2022/05/14 11:30:38;;;;;;;10.15;3.50;;;;;;;21.77;42.29;101270.41;5029943;28;20202;-83
2022/05/14 11:33:18;;;;;;;9.85;2.85;;;;;;;21.92;42.94;101268.00;5026851;28;20198;-83
2022/05/14 11:35:49;;;;;;;7.97;3.35;;;;;;;22.08;42.81;101271.72;5027707;28;20194;-84
2022/05/14 11:38:29;;;;;;;5.95;2.83;;;;;;;22.21;41.86;101265.06;5029500;28;20275;-83
2022/05/14 11:40:59;;;;;;;8.15;3.47;;;;;;;22.22;40.89;101269.47;5024775;28;20238;-83
2022/05/14 11:43:30;;;;;;;8.23;3.25;;;;;;;22.17;41.46;101278.09;5032152;28;20202;-84
2022/05/14 11:46:20;;;;;;;10.63;4.15;;;;;;;22.20;42.29;101271.50;5028864;28;20220;-84
2022/05/14 11:48:50;;;;;;;8.05;3.58;;;;;;;22.26;42.50;101266.28;5032115;28;20202;-84
2022/05/14 11:51:30;;;;;;;8.13;3.55;;;;;;;22.37;42.57;101267.91;5030331;28;20309;-84